Aérodrome :
LOGIN :

S'inscrire | Disclaimer

   EN    FR    IT 

 










Légende :    VFR   VFR Marginal   IFR   IFR Intensif   IFR Très Intensif
Visi : 
Plafond : 
>= 8 km
>= 3000ft
5 à 8 km
1000 à 3000 ft
1500m à 5 km
500 à 1000 ft
800 à 1500m
200 à 500 ft
< 800m
< 200 ft
Symboles :   Orages  Brouillard  Fortes neiges  Fortes précipitations  Vent > 20 kt
SIGMETs :   Divers  Orages  Givrage  Turbulence  Onde Orograph.  Cendres Volcan.







- Altitude de l'aérodrome : 302 ft
- Code IATA : MAH


LEMH - Menorca

DERNIER METAR :
  • 181500Z 18007KT 150V230 CAVOK 25/13 Q1016

METARs EXPIRÉS :
  • 181430Z 19007KT 150V220 CAVOK 26/13 Q1016
  • 181400Z 17007KT 140V230 CAVOK 27/12 Q1016
  • 181330Z 18008KT 140V230 CAVOK 26/13 Q1016
  • 181300Z 17008KT 130V220 CAVOK 26/11 Q1016
  • 181230Z 17009KT 130V210 CAVOK 26/10 Q1016
  • 181200Z 17007KT 140V200 CAVOK 26/11 Q1016

TAF TAF LEMH
Valide du 18 à 15h jusqu'au 19 à 15h UTC


181400Z 1815/1915 18008KT 9999 FEW020 TX26/1912Z TN17/1905Z
BECMG 1818/1820 18004KT
PROB30
TEMPO 1823/1906 3000 BR BKN012
BECMG 1907/1910 18010KT
Pas de NOTAMs connus pour ce terrain.



MET'MAP, la Météo Aéronautique d'un coup d'oeil ! - Copyright ORBIFLY Décembre 2007 - Disclaimer

ORBIFLY MET'MAP TEAM :

Programmation & Développement : Alexandra Zaïnal
Conception & Développement : Baudouin d'Aumeries
Co-Programmation & Développement : Marc-Olivier Méhu
Soutien technique & logistique : Manuel Goepfert

Contact : metmap@orbifly.com




SOURCES & CREDITS :

   NOAA